Airfield :
LOGIN :

Register | Disclaimer

   EN    FR    IT 

 










Legend :    VFR   Marginal VFR   IFR   Intensive IFR   Very Intensive IFR
Visi :
Ceiling :
>= 8 km
>= 3000ft
5 to 8 km
1000 to 3000 ft
1500m to 5 km
500 to 1000 ft
800 to 1500m
200 to 500 ft
< 800m
< 200 ft
Symbols :   Thunderstorms  Fog  Heavy snow  Heavy precipitations  Wind > 20 kt
SIGMETs :     Misc.  Thunderstorms  Icing  Turbulence  Mountain Waves  Volcanic Ashes






- Airport Elevation : 587 ft
- IATA code : XCR


LFOK - Chalons Vatry

CURRENT METAR :
  • 090730Z AUTO 22010KT 9999 FEW005 BKN086 OVC160 00/00 Q1007 TEMPO 2000 RASN BKN006 BKN030TCU

EXPIRED METARs :
  • 090700Z AUTO 22010KT 9999 FEW007 OVC180 00/00 Q1007 TEMPO 2000 RASN BKN006 BKN030TCU
  • 090630Z AUTO 22010KT 9999 FEW006 BKN039 BKN110 00/00 Q1007 TEMPO 2000 RASN BKN006 BKN030TCU
  • 090600Z AUTO 22011KT 9999 FEW005 SCT120 BKN140 00/00 Q1007 TEMPO 2000 RASN BKN006 BKN030TCU
  • 090530Z AUTO 23012KT 9999 FEW004 BKN150 BKN170 00/00 Q1007 TEMPO 2000 RASN BKN006 BKN030TCU

TAF TAF LFOK
Valid from the 09 at 06:00 until the 10 at 06:00 UTC


090500Z 0906/1006 21010KT 9999 BKN030
PROB30
TEMPO 0906/0910 2000 RASN BKN006 BKN030TCU
BECMG 0910/0913 BKN011
PROB30 0918/0923 BKN003
BECMG 1002/1005 2000 RA OVC004



MET'MAP, your aeronautical weather chart ! - Copyright ORBIFLY December 2007 - Disclaimer

ORBIFLY MET'MAP TEAM :

Programming & Development : Alexandra Zaïnal
Concept & original design : Baudouin d'Aumeries
Assistance for programming : Marc-Olivier Méhu
Technical & hardware support : Manuel Goepfert

Contact : metmap@orbifly.com




SOURCES & CREDITS :

   NOAA